sensor_id;sensor_type;location;lat;lon;timestamp;temperature;humidity
70154;DHT22;57519;51.494;-2.626;2023-04-27T00:00:22;6.68;79.78
70154;DHT22;57519;51.494;-2.626;2023-04-27T00:02:47;6.69;79.77
70154;DHT22;57519;51.494;-2.626;2023-04-27T00:05:13;6.74;79.67
70154;DHT22;57519;51.494;-2.626;2023-04-27T00:07:38;6.72;79.42
70154;DHT22;57519;51.494;-2.626;2023-04-27T00:10:04;6.75;79.44
70154;DHT22;57519;51.494;-2.626;2023-04-27T00:12:31;6.74;79.39
70154;DHT22;57519;51.494;-2.626;2023-04-27T00:14:56;6.68;79.53
70154;DHT22;57519;51.494;-2.626;2023-04-27T00:17:21;6.75;79.20
70154;DHT22;57519;51.494;-2.626;2023-04-27T00:19:47;6.78;79.13
70154;DHT22;57519;51.494;-2.626;2023-04-27T00:22:12;6.82;78.88
70154;DHT22;57519;51.494;-2.626;2023-04-27T00:24:38;6.86;78.60
70154;DHT22;57519;51.494;-2.626;2023-04-27T00:27:06;6.91;78.21
70154;DHT22;57519;51.494;-2.626;2023-04-27T00:29:31;6.95;78.12
70154;DHT22;57519;51.494;-2.626;2023-04-27T00:31:56;6.92;78.23
70154;DHT22;57519;51.494;-2.626;2023-04-27T00:34:22;6.92;78.20
70154;DHT22;57519;51.494;-2.626;2023-04-27T00:36:47;6.95;78.35
70154;DHT22;57519;51.494;-2.626;2023-04-27T00:39:12;6.96;78.93
70154;DHT22;57519;51.494;-2.626;2023-04-27T00:41:38;6.88;78.99
70154;DHT22;57519;51.494;-2.626;2023-04-27T00:44:04;6.81;78.88
70154;DHT22;57519;51.494;-2.626;2023-04-27T00:46:30;6.79;79.57
70154;DHT22;57519;51.494;-2.626;2023-04-27T00:48:56;6.74;80.04
70154;DHT22;57519;51.494;-2.626;2023-04-27T00:51:21;6.69;80.42
70154;DHT22;57519;51.494;-2.626;2023-04-27T00:53:52;6.64;80.84
70154;DHT22;57519;51.494;-2.626;2023-04-27T00:56:18;6.60;81.39
70154;DHT22;57519;51.494;-2.626;2023-04-27T00:58:44;6.47;81.64
70154;DHT22;57519;51.494;-2.626;2023-04-27T01:01:12;6.33;81.98
70154;DHT22;57519;51.494;-2.626;2023-04-27T01:03:37;6.31;81.89
70154;DHT22;57519;51.494;-2.626;2023-04-27T01:06:03;6.20;82.72
70154;DHT22;57519;51.494;-2.626;2023-04-27T01:08:28;6.09;83.44
70154;DHT22;57519;51.494;-2.626;2023-04-27T01:10:54;6.06;83.48
70154;DHT22;57519;51.494;-2.626;2023-04-27T01:13:20;6.02;83.76
70154;DHT22;57519;51.494;-2.626;2023-04-27T01:15:45;6.06;83.20
70154;DHT22;57519;51.494;-2.626;2023-04-27T01:18:10;5.99;83.32
70154;DHT22;57519;51.494;-2.626;2023-04-27T01:20:36;5.88;83.75
70154;DHT22;57519;51.494;-2.626;2023-04-27T01:23:03;5.86;83.61
70154;DHT22;57519;51.494;-2.626;2023-04-27T01:25:28;5.88;83.14
70154;DHT22;57519;51.494;-2.626;2023-04-27T01:27:53;6.13;81.14
70154;DHT22;57519;51.494;-2.626;2023-04-27T01:30:19;6.19;80.78
70154;DHT22;57519;51.494;-2.626;2023-04-27T01:32:47;6.21;80.34
70154;DHT22;57519;51.494;-2.626;2023-04-27T01:35:12;6.30;79.87
70154;DHT22;57519;51.494;-2.626;2023-04-27T01:37:37;6.29;79.94
70154;DHT22;57519;51.494;-2.626;2023-04-27T01:40:04;6.16;81.21
70154;DHT22;57519;51.494;-2.626;2023-04-27T01:42:30;6.12;81.91
70154;DHT22;57519;51.494;-2.626;2023-04-27T01:44:56;5.92;82.75
70154;DHT22;57519;51.494;-2.626;2023-04-27T01:47:21;5.81;83.00
70154;DHT22;57519;51.494;-2.626;2023-04-27T01:49:47;5.76;83.65
70154;DHT22;57519;51.494;-2.626;2023-04-27T01:52:12;5.76;84.09
70154;DHT22;57519;51.494;-2.626;2023-04-27T01:54:37;5.68;84.62
70154;DHT22;57519;51.494;-2.626;2023-04-27T01:57:03;5.58;85.25
70154;DHT22;57519;51.494;-2.626;2023-04-27T01:59:28;5.59;85.67
70154;DHT22;57519;51.494;-2.626;2023-04-27T02:01:54;5.58;85.89
70154;DHT22;57519;51.494;-2.626;2023-04-27T02:04:20;5.58;85.94
70154;DHT22;57519;51.494;-2.626;2023-04-27T02:06:46;5.47;86.62
70154;DHT22;57519;51.494;-2.626;2023-04-27T02:09:12;5.41;86.22
70154;DHT22;57519;51.494;-2.626;2023-04-27T02:11:37;5.44;85.97
70154;DHT22;57519;51.494;-2.626;2023-04-27T02:14:03;5.45;85.96
70154;DHT22;57519;51.494;-2.626;2023-04-27T02:16:28;5.40;85.81
70154;DHT22;57519;51.494;-2.626;2023-04-27T02:18:54;5.38;85.78
70154;DHT22;57519;51.494;-2.626;2023-04-27T02:21:19;5.31;85.53
70154;DHT22;57519;51.494;-2.626;2023-04-27T02:23:46;5.26;86.70
70154;DHT22;57519;51.494;-2.626;2023-04-27T02:26:18;5.28;86.63
70154;DHT22;57519;51.494;-2.626;2023-04-27T02:28:45;5.34;86.75
70154;DHT22;57519;51.494;-2.626;2023-04-27T02:31:12;5.40;86.25
70154;DHT22;57519;51.494;-2.626;2023-04-27T02:33:39;5.37;85.95
70154;DHT22;57519;51.494;-2.626;2023-04-27T02:36:04;5.34;85.66
70154;DHT22;57519;51.494;-2.626;2023-04-27T02:38:30;5.30;85.89
70154;DHT22;57519;51.494;-2.626;2023-04-27T02:40:55;5.26;86.48
70154;DHT22;57519;51.494;-2.626;2023-04-27T02:43:21;5.28;86.91
70154;DHT22;57519;51.494;-2.626;2023-04-27T02:45:47;5.22;87.07
70154;DHT22;57519;51.494;-2.626;2023-04-27T02:48:12;5.26;87.24
70154;DHT22;57519;51.494;-2.626;2023-04-27T02:50:44;5.14;87.84
70154;DHT22;57519;51.494;-2.626;2023-04-27T02:53:10;5.13;88.13
70154;DHT22;57519;51.494;-2.626;2023-04-27T02:55:36;5.17;87.95
70154;DHT22;57519;51.494;-2.626;2023-04-27T02:58:02;5.17;87.69
70154;DHT22;57519;51.494;-2.626;2023-04-27T03:00:28;5.20;87.09
70154;DHT22;57519;51.494;-2.626;2023-04-27T03:02:53;5.17;86.79
70154;DHT22;57519;51.494;-2.626;2023-04-27T03:05:19;5.20;86.78
70154;DHT22;57519;51.494;-2.626;2023-04-27T03:07:44;5.26;86.51
70154;DHT22;57519;51.494;-2.626;2023-04-27T03:10:10;5.35;86.16
70154;DHT22;57519;51.494;-2.626;2023-04-27T03:12:35;5.31;86.44
70154;DHT22;57519;51.494;-2.626;2023-04-27T03:15:01;5.41;85.51
70154;DHT22;57519;51.494;-2.626;2023-04-27T03:17:26;5.61;83.74
70154;DHT22;57519;51.494;-2.626;2023-04-27T03:19:52;5.68;83.23
70154;DHT22;57519;51.494;-2.626;2023-04-27T03:22:18;5.62;84.14
70154;DHT22;57519;51.494;-2.626;2023-04-27T03:24:43;5.50;85.16
70154;DHT22;57519;51.494;-2.626;2023-04-27T03:27:09;5.48;85.83
70154;DHT22;57519;51.494;-2.626;2023-04-27T03:29:34;5.40;85.65
70154;DHT22;57519;51.494;-2.626;2023-04-27T03:32:00;5.40;85.87
70154;DHT22;57519;51.494;-2.626;2023-04-27T03:34:25;5.40;85.67
70154;DHT22;57519;51.494;-2.626;2023-04-27T03:36:51;5.44;85.22
70154;DHT22;57519;51.494;-2.626;2023-04-27T03:39:16;5.64;83.77
70154;DHT22;57519;51.494;-2.626;2023-04-27T03:41:42;5.83;82.98
70154;DHT22;57519;51.494;-2.626;2023-04-27T03:44:07;6.12;81.95
70154;DHT22;57519;51.494;-2.626;2023-04-27T03:46:33;6.30;81.32
70154;DHT22;57519;51.494;-2.626;2023-04-27T03:48:58;6.50;80.31
70154;DHT22;57519;51.494;-2.626;2023-04-27T03:51:24;6.58;80.32
70154;DHT22;57519;51.494;-2.626;2023-04-27T03:53:49;6.77;79.55
70154;DHT22;57519;51.494;-2.626;2023-04-27T03:56:15;6.91;78.72
70154;DHT22;57519;51.494;-2.626;2023-04-27T03:58:40;6.99;78.64
70154;DHT22;57519;51.494;-2.626;2023-04-27T04:01:06;7.03;78.73
70154;DHT22;57519;51.494;-2.626;2023-04-27T04:03:35;7.12;78.79
70154;DHT22;57519;51.494;-2.626;2023-04-27T04:06:00;7.23;78.08
70154;DHT22;57519;51.494;-2.626;2023-04-27T04:08:28;7.23;78.19
70154;DHT22;57519;51.494;-2.626;2023-04-27T04:10:55;7.22;78.51
70154;DHT22;57519;51.494;-2.626;2023-04-27T04:13:20;7.30;78.33
70154;DHT22;57519;51.494;-2.626;2023-04-27T04:15:46;7.40;77.92
70154;DHT22;57519;51.494;-2.626;2023-04-27T04:18:11;7.40;77.98
70154;DHT22;57519;51.494;-2.626;2023-04-27T04:20:37;7.43;77.98
70154;DHT22;57519;51.494;-2.626;2023-04-27T04:23:02;7.46;78.04
70154;DHT22;57519;51.494;-2.626;2023-04-27T04:25:27;7.44;78.52
70154;DHT22;57519;51.494;-2.626;2023-04-27T04:27:53;7.46;78.62
70154;DHT22;57519;51.494;-2.626;2023-04-27T04:30:18;7.51;79.00
70154;DHT22;57519;51.494;-2.626;2023-04-27T04:32:44;7.53;78.63
70154;DHT22;57519;51.494;-2.626;2023-04-27T04:35:09;7.55;79.16
70154;DHT22;57519;51.494;-2.626;2023-04-27T04:37:35;7.63;78.69
70154;DHT22;57519;51.494;-2.626;2023-04-27T04:40:06;7.64;78.88
70154;DHT22;57519;51.494;-2.626;2023-04-27T04:42:33;7.63;79.45
70154;DHT22;57519;51.494;-2.626;2023-04-27T04:45:00;7.61;79.39
70154;DHT22;57519;51.494;-2.626;2023-04-27T04:47:25;7.65;79.36
70154;DHT22;57519;51.494;-2.626;2023-04-27T04:49:51;7.70;79.21
70154;DHT22;57519;51.494;-2.626;2023-04-27T04:52:16;7.73;79.17
70154;DHT22;57519;51.494;-2.626;2023-04-27T04:54:42;7.77;79.70
70154;DHT22;57519;51.494;-2.626;2023-04-27T04:57:07;7.73;79.67
70154;DHT22;57519;51.494;-2.626;2023-04-27T04:59:33;7.71;80.03
70154;DHT22;57519;51.494;-2.626;2023-04-27T05:01:59;7.74;80.33
70154;DHT22;57519;51.494;-2.626;2023-04-27T05:04:24;7.75;80.48
70154;DHT22;57519;51.494;-2.626;2023-04-27T05:06:50;7.84;79.89
70154;DHT22;57519;51.494;-2.626;2023-04-27T05:09:17;7.89;79.95
70154;DHT22;57519;51.494;-2.626;2023-04-27T05:11:42;7.98;79.65
70154;DHT22;57519;51.494;-2.626;2023-04-27T05:14:07;8.02;79.97
70154;DHT22;57519;51.494;-2.626;2023-04-27T05:16:33;8.09;79.75
70154;DHT22;57519;51.494;-2.626;2023-04-27T05:18:58;8.10;79.75
70154;DHT22;57519;51.494;-2.626;2023-04-27T05:21:24;8.16;79.64
70154;DHT22;57519;51.494;-2.626;2023-04-27T05:23:49;8.22;79.64
70154;DHT22;57519;51.494;-2.626;2023-04-27T05:26:16;8.26;79.21
70154;DHT22;57519;51.494;-2.626;2023-04-27T05:28:42;8.28;79.36
70154;DHT22;57519;51.494;-2.626;2023-04-27T05:31:07;8.34;79.31
70154;DHT22;57519;51.494;-2.626;2023-04-27T05:33:33;8.39;78.94
70154;DHT22;57519;51.494;-2.626;2023-04-27T05:35:58;8.39;79.43
70154;DHT22;57519;51.494;-2.626;2023-04-27T05:38:24;8.41;79.41
70154;DHT22;57519;51.494;-2.626;2023-04-27T05:40:54;8.41;79.47
70154;DHT22;57519;51.494;-2.626;2023-04-27T05:43:20;8.47;79.43
70154;DHT22;57519;51.494;-2.626;2023-04-27T05:45:45;8.47;79.47
70154;DHT22;57519;51.494;-2.626;2023-04-27T05:48:10;8.49;79.75
70154;DHT22;57519;51.494;-2.626;2023-04-27T05:50:36;8.53;79.58
70154;DHT22;57519;51.494;-2.626;2023-04-27T05:53:01;8.64;79.52
70154;DHT22;57519;51.494;-2.626;2023-04-27T05:55:30;8.61;79.65
70154;DHT22;57519;51.494;-2.626;2023-04-27T05:57:55;8.67;79.49
70154;DHT22;57519;51.494;-2.626;2023-04-27T06:00:20;8.71;79.49
70154;DHT22;57519;51.494;-2.626;2023-04-27T06:02:47;8.71;79.61
70154;DHT22;57519;51.494;-2.626;2023-04-27T06:05:12;8.72;79.74
70154;DHT22;57519;51.494;-2.626;2023-04-27T06:07:38;8.74;79.71
70154;DHT22;57519;51.494;-2.626;2023-04-27T06:10:04;8.74;79.65
70154;DHT22;57519;51.494;-2.626;2023-04-27T06:12:30;8.78;79.37
70154;DHT22;57519;51.494;-2.626;2023-04-27T06:14:56;8.78;79.75
70154;DHT22;57519;51.494;-2.626;2023-04-27T06:17:21;8.80;79.96
70154;DHT22;57519;51.494;-2.626;2023-04-27T06:19:46;8.80;79.83
70154;DHT22;57519;51.494;-2.626;2023-04-27T06:22:12;8.84;79.99
70154;DHT22;57519;51.494;-2.626;2023-04-27T06:24:37;8.88;79.76
70154;DHT22;57519;51.494;-2.626;2023-04-27T06:27:03;8.88;80.01
70154;DHT22;57519;51.494;-2.626;2023-04-27T06:29:28;8.92;79.70
70154;DHT22;57519;51.494;-2.626;2023-04-27T06:31:54;8.98;79.76
70154;DHT22;57519;51.494;-2.626;2023-04-27T06:34:19;9.04;79.79
70154;DHT22;57519;51.494;-2.626;2023-04-27T06:36:45;9.09;79.96
70154;DHT22;57519;51.494;-2.626;2023-04-27T06:39:11;9.23;79.65
70154;DHT22;57519;51.494;-2.626;2023-04-27T06:41:36;9.29;79.71
70154;DHT22;57519;51.494;-2.626;2023-04-27T06:44:02;9.37;79.55
70154;DHT22;57519;51.494;-2.626;2023-04-27T06:46:27;9.44;79.26
70154;DHT22;57519;51.494;-2.626;2023-04-27T06:48:53;9.47;79.58
70154;DHT22;57519;51.494;-2.626;2023-04-27T06:51:25;9.44;79.63
70154;DHT22;57519;51.494;-2.626;2023-04-27T06:53:51;9.50;79.64
70154;DHT22;57519;51.494;-2.626;2023-04-27T06:56:16;9.47;79.69
70154;DHT22;57519;51.494;-2.626;2023-04-27T06:58:42;9.50;79.39
70154;DHT22;57519;51.494;-2.626;2023-04-27T07:01:07;9.66;79.10
70154;DHT22;57519;51.494;-2.626;2023-04-27T07:03:36;9.76;79.37
70154;DHT22;57519;51.494;-2.626;2023-04-27T07:06:01;9.74;79.93
70154;DHT22;57519;51.494;-2.626;2023-04-27T07:08:26;9.71;80.78
70154;DHT22;57519;51.494;-2.626;2023-04-27T07:10:52;9.64;81.15
70154;DHT22;57519;51.494;-2.626;2023-04-27T07:13:17;9.76;80.87
70154;DHT22;57519;51.494;-2.626;2023-04-27T07:15:43;9.90;80.07
70154;DHT22;57519;51.494;-2.626;2023-04-27T07:18:08;9.88;79.91
70154;DHT22;57519;51.494;-2.626;2023-04-27T07:20:36;9.81;79.07
70154;DHT22;57519;51.494;-2.626;2023-04-27T07:23:02;9.85;79.28
70154;DHT22;57519;51.494;-2.626;2023-04-27T07:25:28;9.94;79.20
70154;DHT22;57519;51.494;-2.626;2023-04-27T07:27:53;10.18;78.92
70154;DHT22;57519;51.494;-2.626;2023-04-27T07:30:19;10.18;78.49
70154;DHT22;57519;51.494;-2.626;2023-04-27T07:32:44;10.09;78.45
70154;DHT22;57519;51.494;-2.626;2023-04-27T07:35:11;10.01;78.69
70154;DHT22;57519;51.494;-2.626;2023-04-27T07:37:37;10.21;78.60
70154;DHT22;57519;51.494;-2.626;2023-04-27T07:40:03;10.21;78.46
70154;DHT22;57519;51.494;-2.626;2023-04-27T07:42:43;10.45;78.48
70154;DHT22;57519;51.494;-2.626;2023-04-27T07:45:10;10.50;77.82
70154;DHT22;57519;51.494;-2.626;2023-04-27T07:47:36;10.46;77.70
70154;DHT22;57519;51.494;-2.626;2023-04-27T07:50:02;10.46;77.76
70154;DHT22;57519;51.494;-2.626;2023-04-27T07:52:28;10.39;78.35
70154;DHT22;57519;51.494;-2.626;2023-04-27T07:54:54;10.45;78.26
70154;DHT22;57519;51.494;-2.626;2023-04-27T07:57:19;10.46;78.26
70154;DHT22;57519;51.494;-2.626;2023-04-27T07:59:45;10.55;78.25
70154;DHT22;57519;51.494;-2.626;2023-04-27T08:02:11;10.67;77.96
70154;DHT22;57519;51.494;-2.626;2023-04-27T08:04:37;10.57;78.25
70154;DHT22;57519;51.494;-2.626;2023-04-27T08:07:02;10.53;78.54
70154;DHT22;57519;51.494;-2.626;2023-04-27T08:09:28;10.48;78.33
70154;DHT22;57519;51.494;-2.626;2023-04-27T08:11:53;10.59;78.13
70154;DHT22;57519;51.494;-2.626;2023-04-27T08:14:18;10.66;77.70
70154;DHT22;57519;51.494;-2.626;2023-04-27T08:16:44;10.69;77.99
70154;DHT22;57519;51.494;-2.626;2023-04-27T08:19:10;10.67;78.10
70154;DHT22;57519;51.494;-2.626;2023-04-27T08:21:36;10.48;78.11
70154;DHT22;57519;51.494;-2.626;2023-04-27T08:24:03;10.46;79.18
70154;DHT22;57519;51.494;-2.626;2023-04-27T08:26:28;10.45;80.21
70154;DHT22;57519;51.494;-2.626;2023-04-27T08:28:54;10.38;80.72
70154;DHT22;57519;51.494;-2.626;2023-04-27T08:31:22;10.25;81.05
70154;DHT22;57519;51.494;-2.626;2023-04-27T08:33:48;10.09;81.27
70154;DHT22;57519;51.494;-2.626;2023-04-27T08:36:21;10.23;81.62
70154;DHT22;57519;51.494;-2.626;2023-04-27T08:38:50;10.39;80.98
70154;DHT22;57519;51.494;-2.626;2023-04-27T08:41:25;10.55;79.96
70154;DHT22;57519;51.494;-2.626;2023-04-27T08:43:53;10.62;79.47
70154;DHT22;57519;51.494;-2.626;2023-04-27T08:46:23;10.67;79.03
70154;DHT22;57519;51.494;-2.626;2023-04-27T08:48:52;10.74;78.58
70154;DHT22;57519;51.494;-2.626;2023-04-27T08:51:18;10.91;77.64
70154;DHT22;57519;51.494;-2.626;2023-04-27T08:53:55;11.03;77.25
70154;DHT22;57519;51.494;-2.626;2023-04-27T08:56:23;10.85;77.51
70154;DHT22;57519;51.494;-2.626;2023-04-27T08:58:52;10.98;77.61
70154;DHT22;57519;51.494;-2.626;2023-04-27T09:01:19;11.04;77.45
70154;DHT22;57519;51.494;-2.626;2023-04-27T09:03:45;11.03;76.86
70154;DHT22;57519;51.494;-2.626;2023-04-27T09:06:12;11.22;76.94
70154;DHT22;57519;51.494;-2.626;2023-04-27T09:08:45;11.10;76.86
70154;DHT22;57519;51.494;-2.626;2023-04-27T09:11:12;11.25;76.80
70154;DHT22;57519;51.494;-2.626;2023-04-27T09:13:42;11.11;76.86
70154;DHT22;57519;51.494;-2.626;2023-04-27T09:16:12;11.08;77.08
70154;DHT22;57519;51.494;-2.626;2023-04-27T09:18:42;11.00;77.38
70154;DHT22;57519;51.494;-2.626;2023-04-27T09:21:08;10.98;77.36
70154;DHT22;57519;51.494;-2.626;2023-04-27T09:23:35;11.14;77.46
70154;DHT22;57519;51.494;-2.626;2023-04-27T09:26:05;11.28;77.14
70154;DHT22;57519;51.494;-2.626;2023-04-27T09:28:37;11.32;77.00
70154;DHT22;57519;51.494;-2.626;2023-04-27T09:31:03;11.54;76.42
70154;DHT22;57519;51.494;-2.626;2023-04-27T09:33:30;11.63;76.43
70154;DHT22;57519;51.494;-2.626;2023-04-27T09:35:58;11.66;76.08
70154;DHT22;57519;51.494;-2.626;2023-04-27T09:38:24;11.87;75.73
70154;DHT22;57519;51.494;-2.626;2023-04-27T09:40:51;11.97;75.18
70154;DHT22;57519;51.494;-2.626;2023-04-27T09:43:16;11.87;75.19
70154;DHT22;57519;51.494;-2.626;2023-04-27T09:45:42;11.91;75.32
70154;DHT22;57519;51.494;-2.626;2023-04-27T09:48:09;12.00;75.52
70154;DHT22;57519;51.494;-2.626;2023-04-27T09:50:39;12.01;75.28
70154;DHT22;57519;51.494;-2.626;2023-04-27T09:53:08;12.03;75.21
70154;DHT22;57519;51.494;-2.626;2023-04-27T10:01:46;12.71;74.31
70154;DHT22;57519;51.494;-2.626;2023-04-27T10:07:10;13.10;72.42
70154;DHT22;57519;51.494;-2.626;2023-04-27T10:09:47;13.27;72.55
70154;DHT22;57519;51.494;-2.626;2023-04-27T10:12:20;13.53;71.45
70154;DHT22;57519;51.494;-2.626;2023-04-27T10:14:56;13.10;72.29
70154;DHT22;57519;51.494;-2.626;2023-04-27T10:17:32;13.03;72.63
70154;DHT22;57519;51.494;-2.626;2023-04-27T10:20:00;13.24;72.45
70154;DHT22;57519;51.494;-2.626;2023-04-27T10:22:43;12.95;72.66
70154;DHT22;57519;51.494;-2.626;2023-04-27T10:25:19;12.96;73.26
70154;DHT22;57519;51.494;-2.626;2023-04-27T10:27:54;12.89;73.73
70154;DHT22;57519;51.494;-2.626;2023-04-27T10:30:22;12.80;73.56
70154;DHT22;57519;51.494;-2.626;2023-04-27T10:32:52;12.78;73.49
70154;DHT22;57519;51.494;-2.626;2023-04-27T10:35:18;12.99;73.45
70154;DHT22;57519;51.494;-2.626;2023-04-27T10:37:45;13.18;72.91
70154;DHT22;57519;51.494;-2.626;2023-04-27T10:40:13;13.04;72.75
70154;DHT22;57519;51.494;-2.626;2023-04-27T10:42:44;13.09;73.07
70154;DHT22;57519;51.494;-2.626;2023-04-27T10:45:10;13.13;73.08
70154;DHT22;57519;51.494;-2.626;2023-04-27T10:47:42;13.14;73.00
70154;DHT22;57519;51.494;-2.626;2023-04-27T10:50:12;12.83;73.68
70154;DHT22;57519;51.494;-2.626;2023-04-27T10:52:42;12.82;73.96
70154;DHT22;57519;51.494;-2.626;2023-04-27T10:55:26;12.79;74.27
70154;DHT22;57519;51.494;-2.626;2023-04-27T10:57:53;12.58;74.81
70154;DHT22;57519;51.494;-2.626;2023-04-27T11:00:30;12.44;75.10
70154;DHT22;57519;51.494;-2.626;2023-04-27T11:03:08;12.31;75.29
70154;DHT22;57519;51.494;-2.626;2023-04-27T11:05:37;12.23;76.75
70154;DHT22;57519;51.494;-2.626;2023-04-27T11:08:04;12.18;78.52
70154;DHT22;57519;51.494;-2.626;2023-04-27T11:10:31;12.05;78.55
70154;DHT22;57519;51.494;-2.626;2023-04-27T11:16:18;11.73;81.36
70154;DHT22;57519;51.494;-2.626;2023-04-27T11:18:47;11.69;82.89
70154;DHT22;57519;51.494;-2.626;2023-04-27T11:21:15;11.55;80.89
70154;DHT22;57519;51.494;-2.626;2023-04-27T11:23:44;11.51;81.52
70154;DHT22;57519;51.494;-2.626;2023-04-27T11:29:05;11.52;81.75
70154;DHT22;57519;51.494;-2.626;2023-04-27T11:34:05;11.59;83.05
70154;DHT22;57519;51.494;-2.626;2023-04-27T11:36:31;11.56;82.85
70154;DHT22;57519;51.494;-2.626;2023-04-27T11:38:57;11.42;82.36
70154;DHT22;57519;51.494;-2.626;2023-04-27T11:41:32;11.40;83.59
70154;DHT22;57519;51.494;-2.626;2023-04-27T11:44:03;11.31;82.82
70154;DHT22;57519;51.494;-2.626;2023-04-27T11:46:28;11.28;83.70
70154;DHT22;57519;51.494;-2.626;2023-04-27T11:49:03;11.24;84.68
70154;DHT22;57519;51.494;-2.626;2023-04-27T11:51:29;11.17;84.22
70154;DHT22;57519;51.494;-2.626;2023-04-27T11:54:01;11.18;85.53
70154;DHT22;57519;51.494;-2.626;2023-04-27T11:56:36;11.12;85.28
70154;DHT22;57519;51.494;-2.626;2023-04-27T11:59:02;11.08;85.88
70154;DHT22;57519;51.494;-2.626;2023-04-27T12:01:32;11.14;86.60
70154;DHT22;57519;51.494;-2.626;2023-04-27T12:03:59;11.08;86.11
70154;DHT22;57519;51.494;-2.626;2023-04-27T12:06:27;11.08;85.73
70154;DHT22;57519;51.494;-2.626;2023-04-27T12:08:56;11.11;85.84
70154;DHT22;57519;51.494;-2.626;2023-04-27T12:11:26;11.15;85.83
70154;DHT22;57519;51.494;-2.626;2023-04-27T12:13:54;11.21;86.05
70154;DHT22;57519;51.494;-2.626;2023-04-27T12:16:20;11.24;86.43
70154;DHT22;57519;51.494;-2.626;2023-04-27T12:18:48;11.29;87.43
70154;DHT22;57519;51.494;-2.626;2023-04-27T12:21:14;11.29;86.92
70154;DHT22;57519;51.494;-2.626;2023-04-27T12:23:39;11.38;87.63
70154;DHT22;57519;51.494;-2.626;2023-04-27T12:26:05;11.40;87.19
70154;DHT22;57519;51.494;-2.626;2023-04-27T12:28:30;11.39;87.20
70154;DHT22;57519;51.494;-2.626;2023-04-27T12:30:56;11.40;87.48
70154;DHT22;57519;51.494;-2.626;2023-04-27T12:33:22;11.49;87.74
70154;DHT22;57519;51.494;-2.626;2023-04-27T12:35:47;11.39;87.77
70154;DHT22;57519;51.494;-2.626;2023-04-27T12:38:12;11.25;87.32
70154;DHT22;57519;51.494;-2.626;2023-04-27T12:40:38;11.31;88.47
70154;DHT22;57519;51.494;-2.626;2023-04-27T12:43:03;11.22;88.24
70154;DHT22;57519;51.494;-2.626;2023-04-27T12:45:29;11.21;87.91
70154;DHT22;57519;51.494;-2.626;2023-04-27T12:47:54;11.17;88.90
70154;DHT22;57519;51.494;-2.626;2023-04-27T12:50:19;11.10;89.10
70154;DHT22;57519;51.494;-2.626;2023-04-27T12:52:46;11.08;89.29
70154;DHT22;57519;51.494;-2.626;2023-04-27T12:55:12;11.11;89.86
70154;DHT22;57519;51.494;-2.626;2023-04-27T12:57:37;11.19;90.11
70154;DHT22;57519;51.494;-2.626;2023-04-27T13:00:03;11.11;89.55
70154;DHT22;57519;51.494;-2.626;2023-04-27T13:02:32;11.12;90.22
70154;DHT22;57519;51.494;-2.626;2023-04-27T13:04:59;11.14;90.53
70154;DHT22;57519;51.494;-2.626;2023-04-27T13:07:24;11.14;89.72
70154;DHT22;57519;51.494;-2.626;2023-04-27T13:09:50;11.28;90.31
70154;DHT22;57519;51.494;-2.626;2023-04-27T13:12:16;11.28;89.77
70154;DHT22;57519;51.494;-2.626;2023-04-27T13:14:41;11.27;89.66
70154;DHT22;57519;51.494;-2.626;2023-04-27T13:17:10;11.39;90.05
70154;DHT22;57519;51.494;-2.626;2023-04-27T13:19:35;11.38;89.99
70154;DHT22;57519;51.494;-2.626;2023-04-27T13:22:00;11.32;89.90
70154;DHT22;57519;51.494;-2.626;2023-04-27T13:24:28;11.49;90.62
70154;DHT22;57519;51.494;-2.626;2023-04-27T13:26:53;11.63;89.87
70154;DHT22;57519;51.494;-2.626;2023-04-27T13:29:19;11.63;89.93
70154;DHT22;57519;51.494;-2.626;2023-04-27T13:31:45;11.69;89.87
70154;DHT22;57519;51.494;-2.626;2023-04-27T13:34:10;11.54;88.68
70154;DHT22;57519;51.494;-2.626;2023-04-27T13:36:36;11.54;88.49
70154;DHT22;57519;51.494;-2.626;2023-04-27T13:39:01;11.58;88.57
70154;DHT22;57519;51.494;-2.626;2023-04-27T13:41:28;11.59;89.23
70154;DHT22;57519;51.494;-2.626;2023-04-27T13:43:53;11.40;89.65
70154;DHT22;57519;51.494;-2.626;2023-04-27T13:46:18;11.45;90.31
70154;DHT22;57519;51.494;-2.626;2023-04-27T13:48:44;11.42;90.24
70154;DHT22;57519;51.494;-2.626;2023-04-27T13:51:09;11.55;90.70
70154;DHT22;57519;51.494;-2.626;2023-04-27T13:53:35;11.52;89.93
70154;DHT22;57519;51.494;-2.626;2023-04-27T13:56:00;11.59;89.99
70154;DHT22;57519;51.494;-2.626;2023-04-27T13:58:26;11.67;89.65
70154;DHT22;57519;51.494;-2.626;2023-04-27T14:00:53;11.69;89.37
70154;DHT22;57519;51.494;-2.626;2023-04-27T14:03:19;11.83;89.71
70154;DHT22;57519;51.494;-2.626;2023-04-27T14:05:45;11.83;89.15
70154;DHT22;57519;51.494;-2.626;2023-04-27T14:08:13;11.90;89.30
70154;DHT22;57519;51.494;-2.626;2023-04-27T14:10:38;11.79;89.19
70154;DHT22;57519;51.494;-2.626;2023-04-27T14:13:04;11.82;89.53
70154;DHT22;57519;51.494;-2.626;2023-04-27T14:15:30;11.84;89.20
70154;DHT22;57519;51.494;-2.626;2023-04-27T14:18:00;11.72;89.71
70154;DHT22;57519;51.494;-2.626;2023-04-27T14:20:25;11.72;89.78
70154;DHT22;57519;51.494;-2.626;2023-04-27T14:22:52;11.67;89.50
70154;DHT22;57519;51.494;-2.626;2023-04-27T14:25:18;11.70;89.25
70154;DHT22;57519;51.494;-2.626;2023-04-27T14:27:43;11.84;90.03
70154;DHT22;57519;51.494;-2.626;2023-04-27T14:30:09;11.89;88.97
70154;DHT22;57519;51.494;-2.626;2023-04-27T14:32:35;12.03;89.34
70154;DHT22;57519;51.494;-2.626;2023-04-27T14:35:00;11.83;88.26
70154;DHT22;57519;51.494;-2.626;2023-04-27T14:37:26;11.76;88.63
70154;DHT22;57519;51.494;-2.626;2023-04-27T14:39:51;11.62;89.08
70154;DHT22;57519;51.494;-2.626;2023-04-27T14:42:17;11.54;89.00
70154;DHT22;57519;51.494;-2.626;2023-04-27T14:44:42;11.51;89.25
70154;DHT22;57519;51.494;-2.626;2023-04-27T14:47:08;11.40;89.04
70154;DHT22;57519;51.494;-2.626;2023-04-27T14:49:34;11.39;89.31
70154;DHT22;57519;51.494;-2.626;2023-04-27T14:52:02;11.38;89.33
70154;DHT22;57519;51.494;-2.626;2023-04-27T14:54:29;11.36;89.34
70154;DHT22;57519;51.494;-2.626;2023-04-27T14:59:23;11.48;90.19
70154;DHT22;57519;51.494;-2.626;2023-04-27T15:01:49;11.49;90.66
70154;DHT22;57519;51.494;-2.626;2023-04-27T15:04:14;11.49;90.66
70154;DHT22;57519;51.494;-2.626;2023-04-27T15:06:40;11.43;90.65
70154;DHT22;57519;51.494;-2.626;2023-04-27T15:09:06;11.45;90.81
70154;DHT22;57519;51.494;-2.626;2023-04-27T15:11:32;11.52;90.50
70154;DHT22;57519;51.494;-2.626;2023-04-27T15:13:58;11.46;90.91
70154;DHT22;57519;51.494;-2.626;2023-04-27T15:18:53;11.45;90.97
70154;DHT22;57519;51.494;-2.626;2023-04-27T15:21:18;11.36;91.19
70154;DHT22;57519;51.494;-2.626;2023-04-27T15:23:48;11.36;91.06
70154;DHT22;57519;51.494;-2.626;2023-04-27T15:26:13;11.34;90.96
70154;DHT22;57519;51.494;-2.626;2023-04-27T15:28:39;11.43;91.30
70154;DHT22;57519;51.494;-2.626;2023-04-27T15:31:04;11.55;90.54
70154;DHT22;57519;51.494;-2.626;2023-04-27T15:33:30;11.51;90.11
70154;DHT22;57519;51.494;-2.626;2023-04-27T15:35:56;11.48;90.69
70154;DHT22;57519;51.494;-2.626;2023-04-27T15:38:23;11.52;90.55
70154;DHT22;57519;51.494;-2.626;2023-04-27T15:40:48;11.55;89.86